createdAt,value
2022-11-05T06:54:46.206Z,79.50
2022-11-05T06:57:47.879Z,79.50
2022-11-05T07:00:49.697Z,79.50
2022-11-05T07:03:51.655Z,79.60
2022-11-05T07:06:53.352Z,79.70
2022-11-05T07:09:54.999Z,79.60
2022-11-05T07:12:56.976Z,79.50
2022-11-05T07:15:58.798Z,79.30
2022-11-05T07:19:00.514Z,79.20
2022-11-05T07:22:02.193Z,79.20
2022-11-05T07:25:05.889Z,79.20
2022-11-05T07:28:07.745Z,79.20
2022-11-05T07:31:09.620Z,79.30
2022-11-05T07:34:11.506Z,79.40
2022-11-05T07:37:13.322Z,79.50
2022-11-05T07:40:15.692Z,79.60
2022-11-05T07:43:17.416Z,79.70
2022-11-05T07:46:19.153Z,79.80
2022-11-05T07:49:20.869Z,79.80
2022-11-05T07:52:22.672Z,79.90
2022-11-05T07:55:24.888Z,79.80
2022-11-05T07:58:26.669Z,79.80
2022-11-05T08:01:28.675Z,79.70
2022-11-05T08:04:31.073Z,79.80
2022-11-05T08:07:32.947Z,79.70
2022-11-05T08:10:34.779Z,79.60
2022-11-05T08:13:37.032Z,79.60
2022-11-05T08:16:38.701Z,79.60
2022-11-05T08:19:40.487Z,79.60
2022-11-05T08:22:46.150Z,79.70
2022-11-05T08:25:47.996Z,79.60
2022-11-05T08:28:49.722Z,79.60
2022-11-05T08:31:51.433Z,79.60
2022-11-05T08:34:53.208Z,79.60
2022-11-05T08:38:02.788Z,79.50
2022-11-05T08:41:04.871Z,79.60
2022-11-05T08:44:09.892Z,79.60
2022-11-05T08:47:11.601Z,79.60
2022-11-05T08:50:13.284Z,79.70
2022-11-05T08:53:15.445Z,79.80
2022-11-05T08:56:17.288Z,80.00
2022-11-05T08:59:19.040Z,80.00
2022-11-05T09:02:20.801Z,80.10
2022-11-05T09:05:22.571Z,80.10
2022-11-05T09:08:24.211Z,80.10
2022-11-05T09:11:43.013Z,80.10
2022-11-05T09:14:47.790Z,80.10
2022-11-05T09:17:49.353Z,80.10
2022-11-05T09:20:52.759Z,80.00
2022-11-05T09:23:54.651Z,80.00
2022-11-05T09:26:56.302Z,80.10
2022-11-05T09:29:57.912Z,80.20
2022-11-05T09:32:59.620Z,80.30
2022-11-05T09:36:01.284Z,80.40
2022-11-05T09:39:02.975Z,80.70
2022-11-05T09:42:08.492Z,80.80
2022-11-05T09:45:13.584Z,80.90
2022-11-05T09:48:16.148Z,80.90
2022-11-05T09:51:23.439Z,80.90
2022-11-05T09:54:28.453Z,81.00
2022-11-05T09:57:37.167Z,81.10
2022-11-05T10:00:39.504Z,81.20
2022-11-05T10:03:46.609Z,81.10
2022-11-05T10:06:52.052Z,81.10
2022-11-05T10:10:05.397Z,81.10
2022-11-05T10:13:22.505Z,81.00
2022-11-05T10:16:32.587Z,81.10
2022-11-05T10:19:42.804Z,81.40
2022-11-05T10:22:49.261Z,81.70
2022-11-05T10:25:56.504Z,82.00
2022-11-05T10:28:58.259Z,82.40
2022-11-05T10:32:00.531Z,82.60
2022-11-05T10:35:04.104Z,82.80
2022-11-05T10:38:05.784Z,83.00
2022-11-05T10:41:28.864Z,83.20
2022-11-05T10:44:45.150Z,83.40
2022-11-05T10:47:56.818Z,83.60
2022-11-05T10:50:58.474Z,83.60
2022-11-05T10:54:04.681Z,83.50
2022-11-05T10:57:29.510Z,83.50
2022-11-05T11:00:31.284Z,83.40
2022-11-05T11:03:39.150Z,83.40
2022-11-05T11:06:45.282Z,83.40
2022-11-05T11:09:48.445Z,83.30
2022-11-05T11:12:50.180Z,83.30
2022-11-05T11:15:51.988Z,83.20
2022-11-05T11:19:01.026Z,83.00
2022-11-05T11:22:05.777Z,82.90
2022-11-05T11:25:25.073Z,82.70
2022-11-05T11:28:52.101Z,82.40
2022-11-05T11:31:55.297Z,82.30
2022-11-05T11:34:58.190Z,82.20
2022-11-05T11:38:02.056Z,82.20
2022-11-05T11:41:22.472Z,82.40
2022-11-05T11:44:33.329Z,82.70
2022-11-05T11:47:35.188Z,83.00
2022-11-05T11:50:44.238Z,83.30
2022-11-05T11:53:48.112Z,83.60
2022-11-05T11:56:49.768Z,84.00
2022-11-05T12:00:11.668Z,84.00
2022-11-05T12:03:41.320Z,84.10
2022-11-05T12:06:46.246Z,84.30
2022-11-05T12:09:56.741Z,84.30
2022-11-05T12:13:11.115Z,84.40
2022-11-05T12:16:25.730Z,84.40
2022-11-05T12:19:27.512Z,84.50
2022-11-05T12:23:01.719Z,84.50
2022-11-05T12:26:37.162Z,84.50
2022-11-05T12:29:48.909Z,84.60
2022-11-05T12:33:16.847Z,84.80
2022-11-05T12:36:36.911Z,84.90
2022-11-05T12:39:50.728Z,85.00
2022-11-05T12:43:21.552Z,85.10
2022-11-05T12:46:36.645Z,85.40
2022-11-05T12:50:12.444Z,85.50
2022-11-05T12:53:17.293Z,85.60
2022-11-05T12:56:41.173Z,85.70
2022-11-05T12:59:56.964Z,85.70
2022-11-05T13:03:16.856Z,85.70
2022-11-05T13:06:22.012Z,85.70
2022-11-05T13:09:26.204Z,85.80
2022-11-05T13:12:28.208Z,85.80
2022-11-05T13:15:35.350Z,85.90
2022-11-05T13:18:52.623Z,86.00
2022-11-05T13:21:59.884Z,86.00
2022-11-05T13:25:33.973Z,86.10
2022-11-05T13:28:38.680Z,86.00
2022-11-05T13:31:46.917Z,86.00
2022-11-05T13:34:48.639Z,86.00
2022-11-05T13:38:18.348Z,85.90
2022-11-05T13:41:30.106Z,85.90
2022-11-05T13:44:48.301Z,85.90
2022-11-05T13:48:08.861Z,85.80
2022-11-05T13:51:23.435Z,85.60
2022-11-05T13:54:50.023Z,85.50
2022-11-05T13:57:57.728Z,85.40
2022-11-05T14:01:21.136Z,85.30
2022-11-05T14:04:40.197Z,85.30
2022-11-05T14:07:45.211Z,85.40
2022-11-05T14:11:07.508Z,85.50
2022-11-05T14:14:15.749Z,85.60
2022-11-05T14:17:26.705Z,85.80
2022-11-05T14:20:31.402Z,85.80
2022-11-05T14:23:40.324Z,85.80
2022-11-05T14:26:41.970Z,85.80
2022-11-05T14:29:49.673Z,85.80
2022-11-05T14:32:53.084Z,85.80
2022-11-05T14:36:20.610Z,85.90
2022-11-05T14:39:29.019Z,86.00
2022-11-05T14:42:30.823Z,85.90
2022-11-05T14:45:37.446Z,86.00
2022-11-05T14:48:52.995Z,86.00
2022-11-05T14:51:55.876Z,85.90
2022-11-05T14:54:57.576Z,85.90
2022-11-05T14:57:59.304Z,85.90
2022-11-05T15:01:02.208Z,85.80
2022-11-05T15:04:32.790Z,86.00
2022-11-05T15:07:36.491Z,86.00
2022-11-05T15:10:38.185Z,86.10
2022-11-05T15:13:56.483Z,86.20
2022-11-05T15:17:19.674Z,86.30
2022-11-05T15:20:24.208Z,86.40
2022-11-05T15:23:29.603Z,86.50
2022-11-05T15:26:54.766Z,86.50
2022-11-05T15:29:56.538Z,86.40
2022-11-05T15:33:19.217Z,86.30
2022-11-05T15:36:26.948Z,86.20
2022-11-05T15:39:40.745Z,86.20
2022-11-05T15:42:42.718Z,86.20
2022-11-05T15:45:44.677Z,86.10
2022-11-05T15:48:52.741Z,86.00
2022-11-05T15:51:54.364Z,86.10
2022-11-05T15:55:11.883Z,86.00
2022-11-05T15:58:13.511Z,86.00
2022-11-05T16:01:33.820Z,86.10
2022-11-05T16:04:37.719Z,86.20
2022-11-05T16:07:45.769Z,86.30
2022-11-05T16:10:49.911Z,86.40
2022-11-05T16:13:52.177Z,86.60
2022-11-05T16:16:53.811Z,86.80
2022-11-05T16:19:56.109Z,86.90
2022-11-05T16:23:16.377Z,87.00
2022-11-05T16:29:57.114Z,87.30
2022-11-05T16:33:08.311Z,87.30
2022-11-05T16:36:10.055Z,87.30
2022-11-05T16:39:11.693Z,87.30
2022-11-05T16:42:34.328Z,87.40
2022-11-05T16:45:40.167Z,87.20
2022-11-05T16:48:42.956Z,87.20
2022-11-05T16:51:44.664Z,87.20
2022-11-05T16:54:46.380Z,87.20
2022-11-05T16:57:50.897Z,87.30
2022-11-05T17:01:02.666Z,87.30
2022-11-05T17:04:04.667Z,87.30
2022-11-05T17:07:06.315Z,87.50
2022-11-05T17:10:08.130Z,87.50
2022-11-05T17:13:15.337Z,87.50
2022-11-05T17:16:17.427Z,87.60
2022-11-05T17:19:19.073Z,87.60
2022-11-05T17:22:20.904Z,87.50
2022-11-05T17:25:22.987Z,87.60
2022-11-05T17:28:24.622Z,87.70
2022-11-05T17:31:27.273Z,87.70
2022-11-05T17:34:29.101Z,87.70
2022-11-05T17:37:30.929Z,87.80
2022-11-05T17:40:33.350Z,87.90
2022-11-05T17:43:35.221Z,88.10
2022-11-05T17:46:36.856Z,88.20
2022-11-05T17:49:38.482Z,88.30
2022-11-05T17:52:40.298Z,88.30
2022-11-05T17:55:42.752Z,88.40
2022-11-05T17:58:44.485Z,88.40
2022-11-05T18:01:46.377Z,88.40
2022-11-05T18:04:48.292Z,88.50
2022-11-05T18:07:50.041Z,88.50
2022-11-05T18:10:52.888Z,88.60
2022-11-05T18:13:54.810Z,88.60
2022-11-05T18:17:00.072Z,88.60
2022-11-05T18:20:01.945Z,88.60
2022-11-05T18:23:03.808Z,88.70
2022-11-05T18:26:11.981Z,88.70
2022-11-05T18:29:13.647Z,88.80
2022-11-05T18:32:15.278Z,88.90
2022-11-05T18:35:16.985Z,89.00
2022-11-05T18:38:18.639Z,89.00
2022-11-05T18:41:20.528Z,89.00
2022-11-05T18:44:22.785Z,89.00
2022-11-05T18:47:24.510Z,89.10
2022-11-05T18:50:26.245Z,89.20
2022-11-05T18:53:28.119Z,89.20
2022-11-05T18:56:29.818Z,89.30
2022-11-05T18:59:39.767Z,89.30
2022-11-05T19:02:42.937Z,89.40
2022-11-05T19:05:44.728Z,89.40
2022-11-05T19:08:47.094Z,89.40
2022-11-05T19:11:48.831Z,89.50
2022-11-05T19:14:50.635Z,89.50
2022-11-05T19:17:52.314Z,89.50
2022-11-05T19:20:53.943Z,89.50
2022-11-05T19:24:01.472Z,89.50
2022-11-05T19:27:03.114Z,89.50
2022-11-05T19:30:05.291Z,89.50
2022-11-05T19:33:07.041Z,89.50
2022-11-05T19:36:09.572Z,89.60
2022-11-05T19:39:12.860Z,89.60
2022-11-05T19:42:14.496Z,89.60
2022-11-05T19:45:42.996Z,89.70
2022-11-05T19:48:37.972Z,89.70
2022-11-05T19:51:40.112Z,89.80
2022-11-05T19:54:41.904Z,89.80
2022-11-05T19:57:44.864Z,89.80
2022-11-05T20:00:46.487Z,89.80
2022-11-05T20:03:48.609Z,89.80
2022-11-05T20:06:50.320Z,89.80
2022-11-05T20:09:52.023Z,89.90
2022-11-05T20:12:54.141Z,89.90
2022-11-05T20:15:55.967Z,90.00
2022-11-05T20:18:57.678Z,90.00
2022-11-05T20:22:00.530Z,90.00
2022-11-05T20:25:02.400Z,90.10
2022-11-05T20:28:04.134Z,90.10
2022-11-05T20:31:13.261Z,90.20
2022-11-05T20:34:15.026Z,90.20
2022-11-05T20:37:16.657Z,90.20
2022-11-05T20:40:18.365Z,90.20
2022-11-05T20:43:24.752Z,90.20
2022-11-05T20:46:29.291Z,90.30
2022-11-05T20:49:30.974Z,90.20
2022-11-05T20:52:33.290Z,90.30
2022-11-05T20:55:45.189Z,90.30
2022-11-05T20:58:47.345Z,90.40
2022-11-05T21:01:50.269Z,90.40
2022-11-05T21:04:52.272Z,90.40
2022-11-05T21:07:53.938Z,90.40
2022-11-05T21:10:56.003Z,90.40
2022-11-05T21:13:57.750Z,90.40
2022-11-05T21:16:59.388Z,90.40
2022-11-05T21:20:01.084Z,90.40
2022-11-05T21:23:03.000Z,90.40
2022-11-05T21:26:06.049Z,90.40
2022-11-05T21:29:07.781Z,90.50
2022-11-05T21:32:09.509Z,90.40
2022-11-05T21:35:11.157Z,90.40
2022-11-05T21:38:14.417Z,90.50
2022-11-05T21:41:16.195Z,90.50
2022-11-05T21:44:19.215Z,90.50
2022-11-05T21:47:20.957Z,90.50
2022-11-05T21:50:45.212Z,90.50
2022-11-05T21:54:05.920Z,90.50
2022-11-05T21:57:30.957Z,90.40
2022-11-05T22:00:32.574Z,90.30
2022-11-05T22:03:34.506Z,90.40
2022-11-05T22:06:36.133Z,90.30
2022-11-05T22:09:37.825Z,90.30
2022-11-05T22:12:39.896Z,90.30
2022-11-05T22:15:41.588Z,90.40
2022-11-05T22:18:43.219Z,90.40
2022-11-05T22:21:44.908Z,90.40
2022-11-05T22:24:46.747Z,90.30
2022-11-05T22:27:48.388Z,90.40
2022-11-05T22:30:50.051Z,90.30
2022-11-05T22:33:52.007Z,90.30
2022-11-05T22:36:53.721Z,90.40
2022-11-05T22:39:55.445Z,90.30
2022-11-05T22:42:57.310Z,90.30
